Time;durP1;ratioP1;P1;durP2;ratioP2;P2;SDS_P1;SDS_P2;PMS_P1;PMS_P2;Temp;Humidity;BMP_temperature;BMP_pressure;BME280_temperature;BME280_humidity;BME280_pressure;Samples;Min_cycle;Max_cycle;Signal;HPM_P1;HPM_P2
2023/09/13 00:02:15;;;;;;;10.77;4.60;;;18.80;99.90;;;;;;4998163;28;20459;-83
2023/09/13 00:04:41;;;;;;;13.15;5.00;;;18.70;99.90;;;;;;4981803;28;20038;-83
2023/09/13 00:07:06;;;;;;;13.35;5.35;;;18.80;99.90;;;;;;4998199;28;20042;-83
2023/09/13 00:09:32;;;;;;;12.80;5.55;;;18.70;99.90;;;;;;5014480;28;20038;-84
2023/09/13 00:11:58;;;;;;;13.73;4.60;;;18.70;99.90;;;;;;5014160;28;20034;-84
2023/09/13 00:14:23;;;;;;;12.98;5.68;;;18.70;99.90;;;;;;4981487;28;20038;-83
2023/09/13 00:16:50;;;;;;;12.20;5.05;;;18.70;99.90;;;;;;4997744;28;20042;-83
2023/09/13 00:19:16;;;;;;;11.95;4.35;;;18.70;99.90;;;;;;4981451;28;20034;-83
2023/09/13 00:21:42;;;;;;;12.93;4.30;;;18.70;99.90;;;;;;4981385;28;20152;-82
2023/09/13 00:24:09;;;;;;;13.23;4.70;;;18.60;99.90;;;;;;4997890;28;20196;-82
2023/09/13 00:26:35;;;;;;;14.85;4.50;;;18.60;99.90;;;;;;4981656;28;20136;-82
2023/09/13 00:29:01;;;;;;;12.18;4.60;;;18.50;99.90;;;;;;4996886;28;20132;-82
2023/09/13 00:31:27;;;;;;;13.32;4.45;;;18.40;99.90;;;;;;4996947;28;20038;-82
2023/09/13 00:33:52;;;;;;;12.65;4.68;;;18.30;99.90;;;;;;5014739;28;20061;-82
2023/09/13 00:36:18;;;;;;;13.57;5.10;;;18.30;99.90;;;;;;4997649;28;20042;-82
2023/09/13 00:38:44;;;;;;;14.38;5.57;;;18.30;99.90;;;;;;5013787;28;20113;-82
2023/09/13 00:41:09;;;;;;;11.32;4.90;;;18.30;99.90;;;;;;4997325;28;20052;-83
2023/09/13 00:43:35;;;;;;;12.93;4.35;;;18.20;99.90;;;;;;4980894;28;20121;-82
2023/09/13 00:46:02;;;;;;;12.82;5.03;;;18.20;99.90;;;;;;5013594;28;20045;-83
2023/09/13 00:48:29;;;;;;;14.18;5.15;;;18.20;99.90;;;;;;4997452;28;20057;-83
2023/09/13 00:50:55;;;;;;;11.05;4.03;;;18.20;99.90;;;;;;4997130;28;20050;-82
2023/09/13 00:53:23;;;;;;;10.73;3.83;;;18.30;99.90;;;;;;4996859;28;20486;-82
2023/09/13 00:55:50;;;;;;;9.95;3.33;;;18.20;99.90;;;;;;4996956;28;20034;-82
2023/09/13 00:58:15;;;;;;;8.48;3.60;;;18.20;99.90;;;;;;4996940;28;20053;-82
2023/09/13 01:00:41;;;;;;;11.93;3.47;;;18.20;99.90;;;;;;4997222;28;20042;-81
2023/09/13 01:03:07;;;;;;;11.15;3.47;;;18.20;99.90;;;;;;5013175;28;20042;-81
2023/09/13 01:05:35;;;;;;;8.13;3.22;;;18.20;99.90;;;;;;5013454;28;20057;-82
2023/09/13 01:08:01;;;;;;;9.40;2.70;;;18.10;99.90;;;;;;4996765;28;20042;-81
2023/09/13 01:10:26;;;;;;;8.80;3.00;;;18.30;99.90;;;;;;4996687;28;20049;-81
2023/09/13 01:12:52;;;;;;;10.15;3.17;;;18.20;99.90;;;;;;5012955;28;20398;-82
2023/09/13 01:15:18;;;;;;;7.93;2.53;;;18.20;99.90;;;;;;5013021;28;20038;-82
2023/09/13 01:17:54;;;;;;;10.95;2.88;;;18.20;99.90;;;;;;5012946;28;20073;-82
2023/09/13 01:20:30;;;;;;;11.18;2.78;;;18.10;99.90;;;;;;4996847;28;20042;-82
2023/09/13 01:23:11;;;;;;;9.65;2.83;;;18.10;99.90;;;;;;4996458;28;20064;-82
2023/09/13 01:26:01;;;;;;;8.17;2.13;;;18.10;99.90;;;;;;4996786;28;20421;-82
2023/09/13 01:28:40;;;;;;;6.95;2.35;;;18.10;99.90;;;;;;4996388;28;20272;-83
2023/09/13 01:31:08;;;;;;;6.55;2.53;;;18.00;99.90;;;;;;4996708;28;20371;-83
2023/09/13 01:33:34;;;;;;;13.65;2.55;;;18.00;99.90;;;;;;4996012;28;20088;-82
2023/09/13 01:35:59;;;;;;;8.57;3.00;;;18.00;99.90;;;;;;5012737;28;20442;-82
2023/09/13 01:38:26;;;;;;;12.77;3.78;;;18.00;99.90;;;;;;4988469;28;20043;-81
2023/09/13 01:40:55;;;;;;;9.25;2.75;;;18.00;99.90;;;;;;4976299;28;20050;-82
2023/09/13 01:43:22;;;;;;;9.30;3.08;;;18.00;99.90;;;;;;4976711;28;20053;-82
2023/09/13 01:45:48;;;;;;;9.63;2.78;;;17.90;99.90;;;;;;4976738;28;20042;-81
2023/09/13 01:48:16;;;;;;;10.20;2.95;;;17.90;99.90;;;;;;4976650;28;20073;-82
2023/09/13 01:50:42;;;;;;;11.13;3.00;;;17.90;99.90;;;;;;4976677;28;20046;-82
2023/09/13 01:53:08;;;;;;;10.13;2.80;;;17.90;99.90;;;;;;4976539;28;20411;-82
2023/09/13 01:55:35;;;;;;;10.93;2.75;;;17.80;99.90;;;;;;4976616;28;20035;-81
2023/09/13 01:58:01;;;;;;;10.45;2.50;;;17.70;99.90;;;;;;4976545;28;20038;-83
2023/09/13 02:00:26;;;;;;;9.55;2.53;;;17.70;99.90;;;;;;4976775;28;20036;-82
2023/09/13 02:02:52;;;;;;;5.43;2.03;;;17.60;99.90;;;;;;4976508;28;20042;-82
2023/09/13 02:05:17;;;;;;;8.95;2.28;;;17.60;99.90;;;;;;4976283;28;20431;-82
2023/09/13 02:07:43;;;;;;;7.53;2.60;;;17.60;99.90;;;;;;4976445;28;20414;-82
2023/09/13 02:10:08;;;;;;;7.40;2.00;;;17.60;99.90;;;;;;4976417;28;20049;-83
2023/09/13 02:12:34;;;;;;;9.88;2.20;;;17.60;99.90;;;;;;4976373;28;20042;-82
2023/09/13 02:15:00;;;;;;;10.50;2.42;;;17.60;99.90;;;;;;4976514;28;20126;-83
2023/09/13 02:17:25;;;;;;;9.15;2.47;;;17.60;99.90;;;;;;4976224;28;20045;-84
2023/09/13 02:19:51;;;;;;;6.82;2.67;;;17.60;99.90;;;;;;4980733;28;20065;-83
2023/09/13 02:22:16;;;;;;;8.38;2.20;;;17.70;99.90;;;;;;5015112;28;20493;-82
2023/09/13 02:24:42;;;;;;;5.05;2.03;;;17.70;99.90;;;;;;4995178;28;20038;-81
2023/09/13 02:27:08;;;;;;;7.57;2.03;;;17.70;99.90;;;;;;4976344;28;20411;-82
2023/09/13 02:29:33;;;;;;;8.68;2.35;;;17.60;99.90;;;;;;4992643;28;20042;-83
2023/09/13 02:31:59;;;;;;;8.43;1.90;;;17.60;99.90;;;;;;4960209;28;20560;-83
2023/09/13 02:34:24;;;;;;;8.50;2.17;;;17.70;99.90;;;;;;4976028;28;20051;-82
2023/09/13 02:36:50;;;;;;;7.38;1.92;;;17.60;99.90;;;;;;4992409;28;20506;-83
2023/09/13 02:39:36;;;;;;;8.45;1.80;;;17.60;99.90;;;;;;4976160;28;20064;-83
2023/09/13 02:42:03;;;;;;;9.05;1.80;;;17.70;99.90;;;;;;4992404;28;20049;-82
2023/09/13 02:44:30;;;;;;;10.52;2.20;;;17.60;99.90;;;;;;4992156;28;20129;-83
2023/09/13 02:46:56;;;;;;;8.23;1.77;;;17.60;99.90;;;;;;4992257;28;20610;-82
2023/09/13 02:49:21;;;;;;;5.30;1.65;;;17.50;99.90;;;;;;4976259;28;20125;-82
2023/09/13 02:51:48;;;;;;;5.65;1.63;;;17.50;99.90;;;;;;4992160;28;20491;-81
2023/09/13 02:54:14;;;;;;;6.68;2.00;;;17.50;99.90;;;;;;4978766;28;20053;-83
2023/09/13 02:56:39;;;;;;;8.25;1.98;;;17.50;99.90;;;;;;4996016;28;20042;-82
2023/09/13 02:59:05;;;;;;;8.20;2.22;;;17.50;99.90;;;;;;4979837;28;20376;-83
2023/09/13 03:01:31;;;;;;;8.23;1.80;;;17.50;99.90;;;;;;4979932;28;20104;-83
2023/09/13 03:03:56;;;;;;;7.32;1.88;;;17.40;99.90;;;;;;4979619;28;20046;-83
2023/09/13 03:06:22;;;;;;;8.52;1.42;;;17.40;99.90;;;;;;4979670;28;20046;-83
2023/09/13 03:08:47;;;;;;;7.55;1.90;;;17.40;99.90;;;;;;4979615;28;20050;-82
2023/09/13 03:11:18;;;;;;;6.40;1.88;;;17.40;99.90;;;;;;4979445;28;20133;-83
2023/09/13 03:13:45;;;;;;;6.60;1.50;;;17.40;99.90;;;;;;4995641;28;20069;-84
2023/09/13 03:16:15;;;;;;;5.07;1.65;;;17.40;99.90;;;;;;4995729;28;20526;-82
2023/09/13 03:18:41;;;;;;;5.53;1.65;;;17.40;99.90;;;;;;4995613;28;20035;-83
2023/09/13 03:21:08;;;;;;;7.05;1.95;;;17.40;99.90;;;;;;4995693;28;20041;-83
2023/09/13 03:23:37;;;;;;;5.85;1.60;;;17.40;99.90;;;;;;4963110;28;20125;-84
2023/09/13 03:26:14;;;;;;;9.65;2.20;;;17.40;99.90;;;;;;4963356;28;20385;-83
2023/09/13 03:28:40;;;;;;;7.65;1.80;;;17.30;99.90;;;;;;4995466;28;20045;-82
2023/09/13 03:31:11;;;;;;;6.28;1.70;;;17.30;99.90;;;;;;4963334;28;20030;-82
2023/09/13 03:33:36;;;;;;;6.00;1.67;;;17.30;99.90;;;;;;4995277;28;20065;-82
2023/09/13 03:36:02;;;;;;;9.38;1.90;;;17.30;99.90;;;;;;4978995;28;20038;-84
2023/09/13 03:38:27;;;;;;;7.22;1.75;;;17.30;99.90;;;;;;4978946;28;20038;-83
2023/09/13 03:40:53;;;;;;;6.80;1.92;;;17.30;99.90;;;;;;4995516;28;20050;-83
2023/09/13 03:43:19;;;;;;;8.38;2.13;;;17.40;99.90;;;;;;4995426;28;20042;-83
2023/09/13 03:45:44;;;;;;;8.77;2.40;;;17.40;99.90;;;;;;4978887;28;20052;-82
2023/09/13 03:48:10;;;;;;;6.80;1.80;;;17.30;99.90;;;;;;4996499;28;20053;-81
2023/09/13 03:50:36;;;;;;;6.80;1.70;;;17.30;99.90;;;;;;4978825;28;20050;-81
2023/09/13 03:53:01;;;;;;;8.30;1.95;;;17.30;99.90;;;;;;4978687;28;20054;-82
2023/09/13 03:55:28;;;;;;;11.30;2.33;;;17.30;99.90;;;;;;4978614;28;20124;-82
2023/09/13 03:57:53;;;;;;;8.55;1.90;;;17.30;99.90;;;;;;4994920;28;20050;-82
2023/09/13 04:00:19;;;;;;;7.15;1.70;;;17.30;99.90;;;;;;4962914;28;20049;-82
2023/09/13 04:02:44;;;;;;;10.00;2.58;;;17.30;99.90;;;;;;4978594;28;20077;-82
2023/09/13 04:05:10;;;;;;;6.05;1.92;;;17.40;99.90;;;;;;4962302;28;20045;-82
2023/09/13 04:07:35;;;;;;;7.88;1.80;;;17.40;99.90;;;;;;4978431;28;20080;-82
2023/09/13 04:10:01;;;;;;;7.07;2.00;;;17.40;99.90;;;;;;4978554;28;20118;-82
2023/09/13 04:12:27;;;;;;;7.95;1.90;;;17.30;99.90;;;;;;4978462;28;20038;-82
2023/09/13 04:14:52;;;;;;;7.75;1.77;;;17.20;99.90;;;;;;4978388;28;20474;-81
2023/09/13 04:17:18;;;;;;;7.53;2.00;;;17.10;99.90;;;;;;4978253;28;20125;-81
2023/09/13 04:19:44;;;;;;;4.90;1.58;;;17.10;99.90;;;;;;4995689;28;20482;-81
2023/09/13 04:22:10;;;;;;;5.43;1.60;;;17.10;99.90;;;;;;4978564;28;20053;-82
2023/09/13 04:24:36;;;;;;;8.77;1.75;;;17.10;99.90;;;;;;4994260;28;20038;-81
2023/09/13 04:27:02;;;;;;;6.93;1.77;;;17.00;99.90;;;;;;4962150;28;20054;-82
2023/09/13 04:29:28;;;;;;;7.00;1.55;;;17.00;99.90;;;;;;4994579;28;20042;-82
2023/09/13 04:31:53;;;;;;;9.02;1.98;;;17.10;99.90;;;;;;4978012;28;20049;-82
2023/09/13 04:34:19;;;;;;;7.75;1.50;;;17.10;99.90;;;;;;4977910;28;20054;-81
2023/09/13 04:36:45;;;;;;;7.50;1.65;;;17.00;99.90;;;;;;4977893;28;20192;-80
2023/09/13 04:39:11;;;;;;;9.20;2.00;;;16.90;99.90;;;;;;4995599;28;20042;-81
2023/09/13 04:41:36;;;;;;;7.50;1.63;;;16.80;99.90;;;;;;4978162;28;20065;-83
2023/09/13 04:44:02;;;;;;;6.53;1.60;;;16.80;99.90;;;;;;4977959;28;20494;-82
2023/09/13 04:46:27;;;;;;;9.13;1.55;;;16.70;99.90;;;;;;4977757;28;20050;-82
2023/09/13 04:48:53;;;;;;;8.55;1.70;;;16.70;99.90;;;;;;4978053;28;20085;-82
2023/09/13 04:51:18;;;;;;;6.72;1.50;;;16.70;99.90;;;;;;4977639;28;20042;-82
2023/09/13 04:53:44;;;;;;;9.75;1.67;;;16.70;99.90;;;;;;4977627;28;20042;-82
2023/09/13 04:56:09;;;;;;;8.07;1.58;;;16.70;99.90;;;;;;4977810;28;20040;-82
2023/09/13 04:58:35;;;;;;;12.27;1.95;;;16.60;99.90;;;;;;4993693;28;20046;-82
2023/09/13 05:01:01;;;;;;;6.70;1.98;;;16.60;99.90;;;;;;4977825;28;20088;-82
2023/09/13 05:03:26;;;;;;;9.18;2.17;;;16.50;99.90;;;;;;4993755;28;20533;-81
2023/09/13 05:05:52;;;;;;;7.90;1.98;;;16.50;99.90;;;;;;4961329;28;20410;-81
2023/09/13 05:08:17;;;;;;;6.22;1.75;;;16.40;99.90;;;;;;4977393;28;20537;-82
2023/09/13 05:10:44;;;;;;;7.82;1.98;;;16.40;99.90;;;;;;4977572;28;20038;-82
2023/09/13 05:13:11;;;;;;;8.27;1.60;;;16.40;99.90;;;;;;4994695;28;20054;-82
2023/09/13 05:15:42;;;;;;;6.90;1.75;;;16.40;99.90;;;;;;4976626;28;20165;-81
2023/09/13 05:18:08;;;;;;;9.30;1.98;;;16.20;99.90;;;;;;4993624;28;20434;-81
2023/09/13 05:20:33;;;;;;;7.75;1.60;;;16.20;99.90;;;;;;4993570;28;20038;-80
2023/09/13 05:22:59;;;;;;;8.63;1.60;;;16.10;99.90;;;;;;4977352;28;20518;-80
2023/09/13 05:25:24;;;;;;;6.00;1.90;;;16.00;99.90;;;;;;4976825;28;20038;-80
2023/09/13 05:27:50;;;;;;;7.18;1.70;;;16.00;99.90;;;;;;4994549;28;20049;-80
2023/09/13 05:30:15;;;;;;;5.45;1.50;;;16.00;99.90;;;;;;4994528;28;20038;-80
2023/09/13 05:32:41;;;;;;;7.65;1.88;;;16.00;99.90;;;;;;4977016;28;20055;-79
2023/09/13 05:35:07;;;;;;;6.07;1.58;;;15.90;99.90;;;;;;4960838;28;20109;-80
2023/09/13 05:37:32;;;;;;;6.43;1.55;;;16.00;99.90;;;;;;4976673;28;20069;-80
2023/09/13 05:39:59;;;;;;;9.23;2.00;;;15.90;99.90;;;;;;4994301;28;20049;-80
2023/09/13 05:42:25;;;;;;;4.70;1.50;;;15.90;99.90;;;;;;4994352;28;20049;-80
2023/09/13 05:44:50;;;;;;;5.13;1.10;;;15.90;99.90;;;;;;4993123;28;20507;-81
2023/09/13 05:47:16;;;;;;;5.88;1.45;;;15.80;99.90;;;;;;4976724;28;20081;-81
2023/09/13 05:49:41;;;;;;;5.32;1.30;;;15.70;99.90;;;;;;4994063;28;20042;-82
2023/09/13 05:52:07;;;;;;;4.90;1.60;;;15.80;99.90;;;;;;4976854;28;20050;-82
2023/09/13 05:54:32;;;;;;;9.10;1.70;;;15.70;99.90;;;;;;4960865;28;20066;-81
2023/09/13 05:56:58;;;;;;;5.65;1.63;;;15.70;99.90;;;;;;4993907;28;20479;-81
2023/09/13 05:59:23;;;;;;;4.72;1.40;;;15.60;99.90;;;;;;4992810;28;20121;-82
2023/09/13 06:01:50;;;;;;;7.53;1.60;;;15.60;99.90;;;;;;4976732;28;20069;-82
2023/09/13 06:04:15;;;;;;;8.10;1.73;;;15.60;99.90;;;;;;4992953;28;20042;-81
2023/09/13 06:06:41;;;;;;;7.03;1.50;;;15.50;99.90;;;;;;4976460;28;20092;-79
2023/09/13 06:09:08;;;;;;;6.85;1.95;;;15.50;99.90;;;;;;4976463;28;20042;-79
2023/09/13 06:11:33;;;;;;;7.82;1.70;;;15.50;99.90;;;;;;4992558;28;20499;-80
2023/09/13 06:14:03;;;;;;;5.35;1.40;;;15.40;99.90;;;;;;4976563;28;20108;-78
2023/09/13 06:16:29;;;;;;;11.18;2.03;;;15.40;99.90;;;;;;4976274;28;20499;-79
2023/09/13 06:18:54;;;;;;;8.63;2.40;;;15.40;99.90;;;;;;4992692;28;20046;-79
2023/09/13 06:21:20;;;;;;;7.95;2.08;;;15.40;99.90;;;;;;4993744;28;20043;-79
2023/09/13 06:23:47;;;;;;;8.35;2.08;;;15.40;99.90;;;;;;4993911;28;20041;-79
2023/09/13 06:26:12;;;;;;;10.35;1.92;;;15.40;99.90;;;;;;4993692;28;20178;-78
2023/09/13 06:28:39;;;;;;;7.15;2.03;;;15.30;99.90;;;;;;4995803;28;20618;-77
2023/09/13 06:31:05;;;;;;;10.80;2.20;;;15.40;99.90;;;;;;4980248;28;20046;-78
2023/09/13 06:33:31;;;;;;;7.57;2.15;;;15.30;99.90;;;;;;4979963;28;20061;-79
2023/09/13 06:35:56;;;;;;;8.52;1.90;;;15.30;99.90;;;;;;4996315;28;20042;-79
2023/09/13 06:38:22;;;;;;;11.23;1.73;;;15.30;99.90;;;;;;4980585;28;20050;-80
2023/09/13 06:40:50;;;;;;;10.40;2.40;;;15.40;99.90;;;;;;4997672;28;20038;-80
2023/09/13 06:43:18;;;;;;;9.27;2.40;;;15.30;99.90;;;;;;4997540;28;20046;-81
2023/09/13 06:45:44;;;;;;;6.65;2.05;;;15.30;99.90;;;;;;4996122;28;20554;-81
2023/09/13 06:48:10;;;;;;;8.38;2.30;;;15.30;99.90;;;;;;4980135;28;20073;-82
2023/09/13 06:50:35;;;;;;;11.35;2.17;;;15.20;99.90;;;;;;4980280;28;20483;-83
2023/09/13 06:53:01;;;;;;;9.82;2.80;;;15.30;99.90;;;;;;4979832;28;20495;-82
2023/09/13 06:55:27;;;;;;;9.95;2.67;;;15.30;99.90;;;;;;4963780;28;20057;-82
2023/09/13 06:57:53;;;;;;;8.38;2.20;;;15.30;99.90;;;;;;4995882;28;20042;-81
2023/09/13 07:00:19;;;;;;;11.73;2.60;;;15.30;99.90;;;;;;4995939;28;20046;-80
2023/09/13 07:02:45;;;;;;;10.68;2.50;;;15.30;99.90;;;;;;4979686;28;20065;-81
2023/09/13 07:05:10;;;;;;;11.52;2.42;;;15.40;99.90;;;;;;4979687;28;20051;-81
2023/09/13 07:07:36;;;;;;;9.27;2.55;;;15.40;99.90;;;;;;4979566;28;20046;-82
2023/09/13 07:10:03;;;;;;;11.38;2.58;;;15.40;99.90;;;;;;4979625;28;20050;-81
2023/09/13 07:12:28;;;;;;;13.07;2.55;;;15.40;99.90;;;;;;4979622;28;20069;-82
2023/09/13 07:14:54;;;;;;;9.95;2.40;;;15.30;99.90;;;;;;4995724;28;20479;-82
2023/09/13 07:17:20;;;;;;;11.05;2.95;;;15.40;99.90;;;;;;4979336;28;20038;-82
2023/09/13 07:19:45;;;;;;;10.55;2.53;;;15.40;99.90;;;;;;4963605;28;20048;-82
2023/09/13 07:22:11;;;;;;;10.93;2.38;;;15.40;99.90;;;;;;4979657;28;20050;-82
2023/09/13 07:24:36;;;;;;;14.30;2.90;;;15.30;99.90;;;;;;4979378;28;20085;-82
2023/09/13 07:27:02;;;;;;;9.80;2.30;;;15.40;99.90;;;;;;4979309;28;20049;-82
2023/09/13 07:29:27;;;;;;;12.32;2.35;;;15.40;99.90;;;;;;4979552;28;20101;-83
2023/09/13 07:31:53;;;;;;;13.80;2.65;;;15.50;99.90;;;;;;4995312;28;20093;-83
2023/09/13 07:34:20;;;;;;;11.30;2.53;;;15.50;99.90;;;;;;4975779;28;20397;-83
2023/09/13 07:36:45;;;;;;;9.80;2.30;;;15.60;99.90;;;;;;4975998;28;20479;-83
2023/09/13 07:39:11;;;;;;;8.63;2.42;;;15.60;99.90;;;;;;4975285;28;20042;-82
2023/09/13 07:41:36;;;;;;;10.23;2.30;;;15.70;99.90;;;;;;4976032;28;20046;-82
2023/09/13 07:44:02;;;;;;;12.05;2.67;;;15.70;99.90;;;;;;4975791;28;20034;-81
2023/09/13 07:46:27;;;;;;;11.43;3.03;;;15.60;99.90;;;;;;4975587;28;20042;-82
2023/09/13 07:48:53;;;;;;;11.50;2.47;;;15.70;99.90;;;;;;4975664;28;20050;-82
2023/09/13 07:51:18;;;;;;;10.90;2.60;;;15.70;99.90;;;;;;4992027;28;20046;-82
2023/09/13 07:53:44;;;;;;;11.85;3.10;;;15.70;99.90;;;;;;4975930;28;20046;-82
2023/09/13 07:56:10;;;;;;;9.95;2.63;;;15.70;99.90;;;;;;4975453;28;20110;-82
2023/09/13 07:58:35;;;;;;;7.47;2.28;;;15.60;99.90;;;;;;4975415;28;20130;-83
2023/09/13 08:01:01;;;;;;;10.75;2.72;;;15.60;99.90;;;;;;4975389;28;20042;-83
2023/09/13 08:03:27;;;;;;;8.70;2.58;;;15.60;99.90;;;;;;4975682;28;20039;-83
2023/09/13 08:05:53;;;;;;;8.52;2.75;;;15.60;99.90;;;;;;4975430;28;20047;-82
2023/09/13 08:08:22;;;;;;;11.57;2.60;;;15.50;99.90;;;;;;4976433;28;20047;-82
2023/09/13 08:10:52;;;;;;;8.88;2.30;;;15.60;99.90;;;;;;4975322;28;20054;-83
2023/09/13 08:13:21;;;;;;;8.75;2.13;;;15.60;99.90;;;;;;4975094;28;20050;-82
2023/09/13 08:15:49;;;;;;;9.43;2.42;;;15.60;99.90;;;;;;4975221;28;20130;-83
2023/09/13 08:18:14;;;;;;;10.00;2.75;;;15.60;99.90;;;;;;4975352;28;20440;-83
2023/09/13 08:20:40;;;;;;;8.77;1.98;;;15.60;99.90;;;;;;4975149;28;20042;-82
2023/09/13 08:23:06;;;;;;;8.88;2.25;;;15.70;99.90;;;;;;4975045;28;20049;-83
2023/09/13 08:25:31;;;;;;;7.50;2.10;;;15.70;99.90;;;;;;4974967;28;20047;-83
2023/09/13 08:27:57;;;;;;;9.93;2.30;;;15.80;99.90;;;;;;4974830;28;20043;-82
2023/09/13 08:30:22;;;;;;;9.10;2.72;;;15.90;99.90;;;;;;4974849;28;20134;-82
2023/09/13 08:32:49;;;;;;;9.20;2.63;;;15.90;99.90;;;;;;4974589;28;20093;-82
2023/09/13 08:35:14;;;;;;;9.40;2.33;;;15.90;99.90;;;;;;4974880;28;20090;-83
2023/09/13 08:37:40;;;;;;;9.07;2.42;;;15.90;99.90;;;;;;4958844;28;20070;-82
2023/09/13 08:40:06;;;;;;;9.02;2.10;;;15.90;99.90;;;;;;4974760;28;20035;-82
2023/09/13 08:42:32;;;;;;;7.85;2.05;;;16.00;99.90;;;;;;4975906;28;20042;-82
2023/09/13 08:44:59;;;;;;;10.00;2.40;;;16.10;99.90;;;;;;4976019;28;20043;-82
2023/09/13 08:47:26;;;;;;;7.93;2.55;;;16.10;99.90;;;;;;4974721;28;20384;-82
2023/09/13 08:49:54;;;;;;;7.20;1.98;;;16.10;99.90;;;;;;4958323;28;20554;-82
2023/09/13 08:52:21;;;;;;;6.65;2.10;;;16.10;99.90;;;;;;4973855;28;20093;-82
2023/09/13 08:54:49;;;;;;;8.93;1.90;;;16.10;99.90;;;;;;4974436;28;20553;-82
2023/09/13 08:57:15;;;;;;;8.38;2.10;;;16.10;99.90;;;;;;4974226;28;20530;-83
2023/09/13 08:59:42;;;;;;;9.38;2.35;;;16.20;99.90;;;;;;4974304;28;20038;-83
2023/09/13 09:02:18;;;;;;;9.90;2.22;;;16.20;99.90;;;;;;4974337;28;20080;-82
2023/09/13 09:04:46;;;;;;;8.20;2.13;;;16.20;99.90;;;;;;4974244;28;20484;-82
2023/09/13 09:07:12;;;;;;;7.90;1.88;;;16.20;99.90;;;;;;4975493;28;20598;-82
2023/09/13 09:09:38;;;;;;;10.32;2.10;;;16.20;99.90;;;;;;4974078;28;20043;-82
2023/09/13 09:12:05;;;;;;;7.75;2.05;;;16.30;99.90;;;;;;4973964;28;20109;-82
2023/09/13 09:14:32;;;;;;;8.85;1.80;;;16.30;99.90;;;;;;4974055;28;20065;-82
2023/09/13 09:17:00;;;;;;;8.80;1.90;;;16.30;99.90;;;;;;4974402;28;20419;-82
2023/09/13 09:19:26;;;;;;;10.15;2.03;;;16.30;99.90;;;;;;4973892;28;20042;-82
2023/09/13 09:21:52;;;;;;;7.25;1.90;;;16.30;99.90;;;;;;4974007;28;20043;-82
2023/09/13 09:24:18;;;;;;;9.45;2.25;;;16.30;99.90;;;;;;4973855;28;20050;-82
2023/09/13 09:26:46;;;;;;;10.75;2.03;;;16.30;99.90;;;;;;4973814;28;20669;-82
2023/09/13 09:29:14;;;;;;;8.15;1.98;;;16.30;99.90;;;;;;4974065;28;20400;-82
2023/09/13 09:31:40;;;;;;;11.20;2.55;;;16.30;99.90;;;;;;4973787;28;20130;-83
2023/09/13 09:34:06;;;;;;;10.95;3.17;;;16.30;99.90;;;;;;4989987;28;20054;-82
2023/09/13 09:36:42;;;;;;;8.07;2.17;;;16.30;99.90;;;;;;4961073;28;20065;-82
2023/09/13 09:39:08;;;;;;;11.70;2.55;;;16.30;99.90;;;;;;4961165;28;20148;-82
2023/09/13 09:41:35;;;;;;;9.50;2.50;;;16.30;99.90;;;;;;4993036;28;20066;-82
2023/09/13 09:44:02;;;;;;;9.65;2.13;;;16.30;99.90;;;;;;4992983;28;20038;-82
2023/09/13 09:46:28;;;;;;;8.93;2.13;;;16.30;99.90;;;;;;4977026;28;20092;-82
2023/09/13 09:48:54;;;;;;;8.63;2.30;;;16.40;99.90;;;;;;4976653;28;20046;-82
2023/09/13 09:51:20;;;;;;;8.80;2.08;;;16.40;99.90;;;;;;4976712;28;20043;-82
2023/09/13 09:53:47;;;;;;;9.73;2.20;;;16.30;99.90;;;;;;4976551;28;20061;-83
2023/09/13 09:56:13;;;;;;;11.10;2.03;;;16.30;99.90;;;;;;4960781;28;20114;-83
2023/09/13 09:58:38;;;;;;;9.18;1.98;;;16.40;99.90;;;;;;4960503;28;20038;-83
2023/09/13 10:01:04;;;;;;;5.97;1.92;;;16.30;99.90;;;;;;4993135;28;20046;-82
2023/09/13 10:03:34;;;;;;;11.05;2.20;;;16.10;99.90;;;;;;4976377;28;20132;-81
2023/09/13 10:06:11;;;;;;;8.77;2.30;;;16.10;99.90;;;;;;4976547;28;20129;-81
2023/09/13 10:08:39;;;;;;;11.48;2.10;;;16.10;99.90;;;;;;4992547;28;20046;-81
2023/09/13 10:11:09;;;;;;;7.30;2.20;;;16.20;99.90;;;;;;4992668;28;20038;-82
2023/09/13 10:13:36;;;;;;;8.75;2.50;;;16.10;99.90;;;;;;4976318;28;20051;-81
2023/09/13 10:16:02;;;;;;;10.40;2.70;;;16.10;99.90;;;;;;4992846;28;20042;-81
2023/09/13 10:18:31;;;;;;;9.73;2.40;;;16.00;99.90;;;;;;4992650;28;20038;-80
2023/09/13 10:20:58;;;;;;;10.40;2.47;;;16.00;99.90;;;;;;4976307;28;20069;-81
2023/09/13 10:23:40;;;;;;;8.85;2.63;;;16.00;99.90;;;;;;4992555;28;20034;-80
2023/09/13 10:26:10;;;;;;;9.82;2.45;;;16.10;99.90;;;;;;4994000;28;20053;-81
2023/09/13 10:28:41;;;;;;;8.88;2.28;;;16.10;99.90;;;;;;4992363;28;20038;-80
2023/09/13 10:31:16;;;;;;;9.23;2.83;;;16.20;99.90;;;;;;4976610;28;20533;-80
2023/09/13 10:33:44;;;;;;;9.20;2.50;;;16.20;99.90;;;;;;4976006;28;20058;-80
2023/09/13 10:36:19;;;;;;;5.45;1.73;;;16.20;99.90;;;;;;4992478;28;20038;-80
2023/09/13 10:38:49;;;;;;;9.73;2.50;;;16.30;99.90;;;;;;4976349;28;20117;-80
2023/09/13 10:41:17;;;;;;;7.60;2.15;;;16.30;99.90;;;;;;4992436;28;20096;-80
2023/09/13 10:43:44;;;;;;;9.52;2.72;;;16.40;99.90;;;;;;4993486;28;20494;-80
2023/09/13 10:46:10;;;;;;;8.70;2.33;;;16.60;99.90;;;;;;4976187;28;20096;-80
2023/09/13 10:48:38;;;;;;;11.23;2.28;;;16.60;99.90;;;;;;4976058;28;20077;-81
2023/09/13 10:51:05;;;;;;;9.13;2.35;;;16.70;99.90;;;;;;4993636;28;20042;-80
2023/09/13 10:53:32;;;;;;;8.80;2.38;;;16.80;99.90;;;;;;4993363;28;20049;-80
2023/09/13 10:55:58;;;;;;;8.60;2.08;;;16.90;99.90;;;;;;4993461;28;20038;-80
2023/09/13 10:58:25;;;;;;;10.18;2.58;;;16.80;99.90;;;;;;4993598;28;20505;-81
2023/09/13 11:00:54;;;;;;;8.77;2.17;;;16.90;99.90;;;;;;4976070;28;20050;-80
2023/09/13 11:03:21;;;;;;;9.40;2.22;;;16.90;99.90;;;;;;4993554;28;20039;-80
2023/09/13 11:05:50;;;;;;;7.03;2.53;;;17.20;99.90;;;;;;4975945;28;20097;-80
2023/09/13 11:08:30;;;;;;;9.65;2.30;;;17.20;99.90;;;;;;4959888;28;20043;-80
2023/09/13 11:11:06;;;;;;;8.40;2.17;;;17.30;99.90;;;;;;4992211;28;20097;-81
2023/09/13 11:13:31;;;;;;;8.52;2.40;;;17.20;99.90;;;;;;4992273;28;20054;-81
2023/09/13 11:16:03;;;;;;;7.22;2.35;;;17.20;99.90;;;;;;4979737;28;20105;-80
2023/09/13 11:18:29;;;;;;;7.10;1.92;;;17.20;99.90;;;;;;4995865;28;20078;-81
2023/09/13 11:20:56;;;;;;;11.02;2.60;;;17.20;99.90;;;;;;4995596;28;20034;-80
2023/09/13 11:23:22;;;;;;;7.28;2.22;;;17.30;99.90;;;;;;4997023;28;20430;-81
2023/09/13 11:26:00;;;;;;;5.55;1.95;;;17.30;99.90;;;;;;4963235;28;20048;-80
2023/09/13 11:28:43;;;;;;;6.40;1.73;;;17.40;99.90;;;;;;4995830;28;20046;-80
2023/09/13 11:31:11;;;;;;;7.97;2.08;;;17.40;99.90;;;;;;4995828;28;20042;-81
2023/09/13 11:33:44;;;;;;;8.07;1.80;;;17.40;99.90;;;;;;4978873;28;20066;-80
2023/09/13 11:36:18;;;;;;;7.18;1.77;;;17.40;99.90;;;;;;4996663;28;20125;-80
2023/09/13 11:38:44;;;;;;;5.32;1.90;;;17.50;99.90;;;;;;4995552;28;20411;-82
2023/09/13 11:41:16;;;;;;;8.68;1.60;;;17.50;99.90;;;;;;4979021;28;20136;-81
2023/09/13 11:43:42;;;;;;;7.93;1.95;;;17.60;99.90;;;;;;4962923;28;20510;-81
2023/09/13 11:46:08;;;;;;;5.65;1.85;;;17.70;99.90;;;;;;4963001;28;20054;-82
2023/09/13 11:48:40;;;;;;;6.88;2.30;;;17.80;99.90;;;;;;4979024;28;20042;-82
2023/09/13 11:51:12;;;;;;;6.93;2.10;;;17.80;99.90;;;;;;4995090;28;20065;-83
2023/09/13 11:53:38;;;;;;;7.25;1.55;;;17.80;99.90;;;;;;4962712;28;20050;-82
2023/09/13 11:56:04;;;;;;;5.55;1.60;;;17.70;99.90;;;;;;4994996;28;20035;-83
2023/09/13 11:58:32;;;;;;;6.15;1.90;;;17.70;99.90;;;;;;4978703;28;20038;-83
2023/09/13 12:01:03;;;;;;;6.05;1.75;;;17.80;99.90;;;;;;4994821;28;20125;-83
2023/09/13 12:03:39;;;;;;;6.65;1.90;;;17.80;99.90;;;;;;4995165;28;20053;-83
2023/09/13 12:06:05;;;;;;;7.10;1.80;;;18.00;99.90;;;;;;4994822;28;20553;-83
2023/09/13 12:08:34;;;;;;;6.85;1.70;;;17.90;99.90;;;;;;4994757;28;20049;-83
2023/09/13 12:11:02;;;;;;;4.88;1.45;;;17.90;99.90;;;;;;4962346;28;20046;-84
2023/09/13 12:13:42;;;;;;;6.40;1.92;;;17.90;99.90;;;;;;4994644;28;20046;-82
2023/09/13 12:16:08;;;;;;;7.10;1.50;;;18.00;99.90;;;;;;4962374;28;20491;-82
2023/09/13 12:18:34;;;;;;;7.95;1.70;;;18.00;99.90;;;;;;4962281;28;20041;-82
2023/09/13 12:21:00;;;;;;;5.80;1.58;;;18.00;99.90;;;;;;4994685;28;20042;-84
2023/09/13 12:23:26;;;;;;;6.35;1.60;;;18.00;99.90;;;;;;4962389;28;20521;-83
2023/09/13 12:25:56;;;;;;;6.45;1.60;;;18.00;99.90;;;;;;4962142;28;20096;-83
2023/09/13 12:28:36;;;;;;;6.53;1.58;;;18.00;99.90;;;;;;4978573;28;20046;-83
2023/09/13 12:31:10;;;;;;;7.80;1.73;;;18.00;99.90;;;;;;4994340;28;20077;-83
2023/09/13 12:33:45;;;;;;;5.80;1.20;;;18.20;99.90;;;;;;4961756;28;20157;-83
2023/09/13 12:36:11;;;;;;;9.57;1.50;;;18.10;99.90;;;;;;4994275;28;20050;-83
2023/09/13 12:38:43;;;;;;;7.50;1.50;;;18.10;99.90;;;;;;4994463;28;20038;-83
2023/09/13 12:41:12;;;;;;;8.40;1.90;;;18.10;99.90;;;;;;4961859;28;20126;-83
2023/09/13 12:43:42;;;;;;;7.30;1.47;;;18.10;99.90;;;;;;4978293;28;20062;-83